none
WSUS无法获得WIN10&Win2012 R2补丁报告 RRS feed

  • 问题

  • 系统环境:

    AD :Win 2008

    WSUS:Win2012 R2 +WSUS3.0 9600.18694

    WSUS无法获得WIN10&Win2012 R2补丁报告

    已经安装KB3095113补丁,WIN 10&WIN 2012 R2 可以从WSUS上获得补丁,但服务器无法获得客户端的补丁报告

    2018年12月25日 3:50

全部回复

  • 附上日志

    2018/12/25 13:28:25.0088936 19540 19256 Agent           Refreshing global settings cache
    2018/12/25 13:28:25.0088963 19540 19256 Agent           WSUS server: http://wsus-server.server.com:8530 (Changed)
    2018/12/25 13:28:25.0088984 19540 19256 Agent           WSUS status server: http://wsus-server.server.com:8530 (Changed)
    2018/12/25 13:28:25.0089000 19540 19256 Agent           Alternate Download Server: (null) (Changed)
    2018/12/25 13:28:25.0089017 19540 19256 Agent           Fill Empty Content Urls: No (Unchanged)
    2018/12/25 13:28:25.0089035 19540 19256 Agent           Target group: (Unassigned Computers) (Unchanged)
    2018/12/25 13:28:25.0089050 19540 19256 Agent           Windows Update access disabled: No (Unchanged)
    2018/12/25 13:28:25.0089070 19540 19256 Agent           Do not connect to Windows Update Internet locations: No (Unchanged)
    2018/12/25 13:37:02.3389785 19540 20224 Agent           Earliest future timer found: 
    2018/12/25 13:37:02.3389867 19540 20224 Agent               Timer: 29A863E7-8609-4D1E-B7CD-5668F857F1DB, Expires 2018-12-25 08:58:06, not idle-only, not network-only
    2018/12/25 13:37:03.3402048 19540 19256 Shared          UninitializeSUS
    2018/12/25 13:37:03.3402061 19540 19256 Misc            CSusClientGlobal::DoServicePreShutdown
    2018/12/25 13:37:03.3404195 19540 19256 IdleTimer       Idle timer disabled in preparation for service shutdown
    2018/12/25 13:37:03.3404269 19540 19256 Misc            WUTaskManager uninit
    2018/12/25 13:37:03.3404286 19540 19256 Agent           Earliest future timer found: 
    2018/12/25 13:37:03.3404337 19540 19256 Agent               Timer: 29A863E7-8609-4D1E-B7CD-5668F857F1DB, Expires 2018-12-25 08:58:06, not idle-only, not network-only
    2018/12/25 13:37:03.3482602 19540 19256 Misc            CreateSessionStateChangeTrigger, TYPE:2, Enable:No
    2018/12/25 13:37:03.3482653 19540 19256 Misc            CreateSessionStateChangeTrigger, TYPE:4, Enable:No
    2018/12/25 13:37:03.3509035 19540 19256 Misc            Agent uninit
    2018/12/25 13:37:03.3522860 19540 19256 Misc            Reporter uninit
    2018/12/25 13:37:03.3578551 19540 19256 Misc            network cost manager uninit
    2018/12/25 13:37:03.3578655 19540 19256 Misc            Eventer uninit
    2018/12/25 13:37:04.3585270 19540 19256 Misc            ServiceManager uninit
    2018/12/25 13:37:04.3585963 19540 19256 Misc            PersistentTimeoutScheduler uninit
    2018/12/25 13:37:04.3585979 19540 19256 Misc            datastore uninit
    2018/12/25 13:37:04.3786239 19540 19256 Misc            setting cache uninit
    2018/12/25 13:37:04.3786253 19540 19256 Misc            security checker uninit
    2018/12/25 13:37:04.3786273 19540 19256 Misc            Test Hook uninit
    2018/12/25 13:37:04.3786279 19540 19256 Misc            IdleTimer uninit
    2018/12/25 13:37:04.3788537 19540 19256 Shared          * END * Service exit Exit code = 0x240001
    2018/12/25 13:38:22.0880900 19220 20024 Shared          InitializeSus
    2018/12/25 13:38:22.0889833 19220 20024 IdleTimer       Non-AoAc machine.  Aoac operations will be ignored.
    2018/12/25 13:38:22.0892105 19220 20024 Agent           WU client version 10.0.17763.168
    2018/12/25 13:38:22.0896076 19220 20024 Agent           SleepStudyTracker: Machine is non-AOAC. Sleep study tracker disabled.
    2018/12/25 13:38:22.0900758 19220 20024 Agent           Base directory: C:\WINDOWS\SoftwareDistribution
    2018/12/25 13:38:22.0925838 19220 20024 Agent           Datastore directory: C:\WINDOWS\SoftwareDistribution\DataStore\DataStore.edb
    2018/12/25 13:38:22.0935644 19220 20024 DataStore       JetEnableMultiInstance succeeded - applicable param count: 5, applied param count: 5
    2018/12/25 13:38:22.1406883 19220 20024 Shared          UpdateNetworkState Ipv6, cNetworkInterfaces = 0.
    2018/12/25 13:38:22.1418089 19220 20024 Shared          UpdateNetworkState Ipv4, cNetworkInterfaces = 1.
    2018/12/25 13:38:22.1436914 19220 20024 Shared          Network state: Connected
    2018/12/25 13:38:22.2425476 19220 20024 Misc            *FAILED* [8024000C] LoadHistoryEventFromRegistry completed
    2018/12/25 13:38:22.2427526 19220 20024 Shared          UpdateNetworkState Ipv6, cNetworkInterfaces = 0.
    2018/12/25 13:38:22.2427577 19220 20024 Shared          UpdateNetworkState Ipv4, cNetworkInterfaces = 1.
    2018/12/25 13:38:22.2427622 19220 20024 Shared          Power status changed
    2018/12/25 13:38:22.2457765 19220 20084 Agent           *FAILED* [80240013] m_services.Add()
    2018/12/25 13:38:22.2457791 19220 20084 Agent           *FAILED* [80240013] Method failed [CAgentServiceManager::CreateServiceObjectAndAddIntoMap:2034]
    2018/12/25 13:38:22.2457827 19220 20084 Agent           *FAILED* [80240013] Method failed [CAgentServiceManager::DelayedInit:2678]
    2018/12/25 13:38:22.2476331 19220 20084 Agent               Timer: 29A863E7-8609-4D1E-B7CD-5668F857F1DB, Expires 2018-12-25 08:58:06, not idle-only, not network-only
    2018/12/25 13:38:22.2476703 19220 20024 Agent           Initializing global settings cache
    2018/12/25 13:38:22.2476716 19220 20024 Agent           WSUS server: http://wsus-server.server.com:8530
    2018/12/25 13:38:22.2476725 19220 20024 Agent           WSUS status server: http://wsus-server.server.com:8530
    2018/12/25 13:38:22.2476731 19220 20024 Agent           Alternate Download Server: (null)
    2018/12/25 13:38:22.2476738 19220 20024 Agent           Fill Empty Content Urls: No
    2018/12/25 13:38:22.2476746 19220 20024 Agent           Target group: (Unassigned Computers)
    2018/12/25 13:38:22.2476752 19220 20024 Agent           Windows Update access disabled: No
    2018/12/25 13:38:22.2476759 19220 20024 Agent           Do not connect to Windows Update Internet locations: No
    2018/12/25 13:38:22.2541450 19220 20084 Agent           Initializing Windows Update Agent
    2018/12/25 13:38:22.2542407 19220 20084 Agent           CPersistentTimeoutScheduler | GetTimer, returned hr = 0x00000000
    2018/12/25 13:38:22.2559163 19220 20024 IdleTimer       IdleTimer::NetworkStateChanged. Network connected? Yes
    2018/12/25 13:38:22.2561664 19220 20084 IdleTimer       WU operation (CDiscoveryCall::Init ID 1) started; operation # 3; does use network; is not at background priority
    2018/12/25 13:38:22.2563281 18716 20468 ComApi          *QUEUED* SLS Discovery
    2018/12/25 13:38:22.2640321 19220 11172 DownloadManager Received power state change notification: Old: <unknown>; New: AC.

    2018年12月25日 5:42
  • 你好,可以先确认下防火墙里有没有开放了8530(·https·的话8531)端口呢?

    2018年12月26日 5:55
  • 防火墙已经关闭了
    2018年12月26日 6:13
  • 你好,

    请确认下本地策略里的WindowsUpdate的自动更新的选项,如下图,如果【自动维护时下载】被选择了,请取消。

    参考链接‘(日文)https://blogs.technet.microsoft.com/jpwsus/2015/03/24/wsus-2-windows-8-windows-server-2012/

    2018年12月26日 8:35
  • 谢谢您的帮助~

    我检查过客户端,次选项并未开启

    2018年12月26日 9:01
  • 你好,可以检查下IIS的WsusPool么,查看下 process model的ID是否为NetworkService

    2018年12月26日 9:26
  • 我按帖子里的操作了,日志如下

    2018/12/26 17:19:55.5290678 4456  9472  Shared          * START * Service startup
    2018/12/26 17:19:55.5632574 4456  9472  IdleTimer       Non-AoAc machine.  Aoac operations will be ignored.
    2018/12/26 17:19:55.5633468 4456  9472  Agent           WU client version 10.0.16299.98
    2018/12/26 17:19:55.5636992 4456  9472  Agent           SleepStudyTracker: Machine is non-AOAC. Sleep study tracker disabled.
    2018/12/26 17:19:55.5639282 4456  9472  Agent           Base directory: C:\WINDOWS\SoftwareDistribution
    2018/12/26 17:19:55.5645255 4456  9472  Agent           Datastore directory: C:\WINDOWS\SoftwareDistribution\DataStore\DataStore.edb
    2018/12/26 17:19:55.5655717 4456  9472  DataStore       JetEnableMultiInstance succeeded - applicable param count: 5, applied param count: 5
    2018/12/26 17:19:55.6191339 4456  9472  Shared          UpdateNetworkState Ipv6, cNetworkInterfaces = 1.
    2018/12/26 17:19:55.6191799 4456  9472  Shared          UpdateNetworkState Ipv4, cNetworkInterfaces = 1.
    2018/12/26 17:19:55.6197288 4456  9472  Shared          Network state: Connected
    2018/12/26 17:19:55.7707791 4456  9472  Misc            *FAILED* [8024000C] LoadHistoryEventFromRegistry completed
    2018/12/26 17:19:55.7709399 4456  9472  Shared          UpdateNetworkState Ipv6, cNetworkInterfaces = 1.
    2018/12/26 17:19:55.7709502 4456  9472  Shared          UpdateNetworkState Ipv4, cNetworkInterfaces = 1.
    2018/12/26 17:19:55.7709596 4456  9472  Shared          Power status changed
    2018/12/26 17:19:55.7722913 4456  9472  Agent           Initializing global settings cache
    2018/12/26 17:19:55.7722930 4456  9472  Agent           WSUS server: http://wsus-server.server.com:8530
    2018/12/26 17:19:55.7722958 4456  9472  Agent           WSUS status server: http://wsus-server.server.com:8530
    2018/12/26 17:19:55.7722971 4456  9472  Agent           Alternate Download Server: http://localhost:8005
    2018/12/26 17:19:55.7722987 4456  9472  Agent           Fill Empty Content Urls: Yes
    2018/12/26 17:19:55.7722999 4456  9472  Agent           Target group: (Unassigned Computers)
    2018/12/26 17:19:55.7723012 4456  9472  Agent           Windows Update access disabled: No
    2018/12/26 17:19:55.7723028 4456  9472  Agent           Do not connect to Windows Update Internet locations: No
    2018/12/26 17:19:55.7728653 4456  4676  Agent               Timer: 855E8A7C-ECB4-4CA3-B045-1DFA50104289, Expires 2018-12-26 09:28:18, not idle-only, network-only
    2018/12/26 17:19:55.7728739 4456  4676  Agent               Timer: 29A863E7-8609-4D1E-B7CD-5668F857F1DB, Expires 2018-12-26 11:41:22, not idle-only, not network-only
    2018/12/26 17:19:55.7881178 4456  4676  Agent           Initializing Windows Update Agent
    2018/12/26 17:19:55.7882364 4456  4676  Agent           CPersistentTimeoutScheduler | GetTimer, returned hr = 0x00000000
    2018/12/26 17:19:55.7893830 4456  4676  IdleTimer       WU operation (SR.Device Driver Retrieval Client ID 1) started; operation # 3; does use network; is not at background priority
    2018/12/26 17:19:55.7898085 4456  2820  Agent           Processing auto/pending service registrations and recovery.
    2018/12/26 17:19:55.8067172 4456  7540  DownloadManager PurgeExpiredFiles::Found 0 expired files to delete.
    2018/12/26 17:19:55.8070130 4456  7540  DownloadManager PurgeExpiredUpdates::Found 165 non expired updates.
    2018/12/26 17:19:55.8868731 4456  2820  IdleTimer       WU operation (SR.Device Driver Retrieval Client ID 1, operation # 3) stopped; does use network; is not at background priority
    2018/12/26 17:19:55.8995640 1276  1696  ComApi          Federated Search: Starting search against 2 service(s) (cV = AdZPdjBP7024GUXs.1.0)
    2018/12/26 17:19:55.8997814 1276  1696  ComApi          * START *   Search ClientId = Device Driver Retrieval Client, ServiceId = 9482F4B4-E343-43B6-B170-9A65BC822C77 (cV = AdZPdjBP7024GUXs.1.0.0)
    2018/12/26 17:19:55.9035853 4456  4676  IdleTimer       WU operation (CSearchCall::Init ID 2) started; operation # 6; does use network; is not at background priority
    2018/12/26 17:19:55.9149396 4456  4676  Reporter        OS Product Type = 0x00000030
    2018/12/26 17:19:55.9561236 4456  4676  Agent           * START * Queueing Finding updates [CallerId = Device Driver Retrieval Client  Id = 2]
    2018/12/26 17:19:55.9561433 4456  4676  Agent           Service 9482F4B4-E343-43B6-B170-9A65BC822C77 is not in sequential scan list
    2018/12/26 17:19:55.9561548 4456  4676  Agent           Added service 9482F4B4-E343-43B6-B170-9A65BC822C77 to sequential scan list
    2018/12/26 17:19:55.9566483 1276  1696  ComApi          * START *   Search ClientId = Device Driver Retrieval Client, ServiceId = 8B24B027-1DEE-BABB-9A95-3517DFB9C552 (cV = AdZPdjBP7024GUXs.1.0.0)
    2018/12/26 17:19:55.9567513 4456  6660  Agent           Service 9482F4B4-E343-43B6-B170-9A65BC822C77 is in sequential scan list
    2018/12/26 17:19:55.9601942 4456  4676  IdleTimer       WU operation (CSearchCall::Init ID 3) started; operation # 9; does use network; is not at background priority
    2018/12/26 17:19:55.9678988 4456  6204  Agent           * END * Queueing Finding updates [CallerId = Device Driver Retrieval Client  Id = 2]
    2018/12/26 17:19:55.9786467 4456  6204  Agent           * START * Finding updates CallerId = Device Driver Retrieval Client  Id = 2
    2018/12/26 17:19:55.9786606 4456  6204  Agent           Online = Yes; Interactive = Yes; AllowCachedResults = No; Ignore download priority = No
    2018/12/26 17:19:55.9786676 4456  6204  Agent           Criteria = CallerProfile='AU' and IsInstalled=0 and Type='Driver'""
    2018/12/26 17:19:55.9786873 4456  6204  Agent           ServiceID = {9482F4B4-E343-43B6-B170-9A65BC822C77} Windows Update
    2018/12/26 17:19:55.9786914 4456  6204  Agent           Search Scope = {Machine}
    2018/12/26 17:19:55.9787045 4456  6204  Agent           Caller SID for Applicability: S-1-5-18
    2018/12/26 17:19:55.9976215 4456  4676  Agent           * START * Queueing Finding updates [CallerId = Device Driver Retrieval Client  Id = 3]
    2018/12/26 17:19:55.9976444 4456  4676  Agent           Service 8B24B027-1DEE-BABB-9A95-3517DFB9C552 is not in sequential scan list
    2018/12/26 17:19:55.9978049 4456  6660  Agent           Service 8B24B027-1DEE-BABB-9A95-3517DFB9C552 is not in sequential scan list
    2018/12/26 17:19:56.0046615 4456  1884  Agent           * END * Queueing Finding updates [CallerId = Device Driver Retrieval Client  Id = 3]
    2018/12/26 17:19:56.0109462 4456  1884  Agent           * START * Finding updates CallerId = Device Driver Retrieval Client  Id = 3
    2018/12/26 17:19:56.0109515 4456  1884  Agent           Online = Yes; Interactive = Yes; AllowCachedResults = No; Ignore download priority = No
    2018/12/26 17:19:56.0109544 4456  1884  Agent           Criteria = CallerProfile='AU' and IsInstalled=0 and Type='Driver'""
    2018/12/26 17:19:56.0109614 4456  1884  Agent           ServiceID = {8B24B027-1DEE-BABB-9A95-3517DFB9C552} Third party service
    2018/12/26 17:19:56.0109651 4456  1884  Agent           Search Scope = {Machine}
    2018/12/26 17:19:56.0109757 4456  1884  Agent           Caller SID for Applicability: S-1-5-18
    2018/12/26 17:19:56.0477786 4456  7540  DownloadManager PurgeExpiredUpdates::Found 0 expired updates.
    2018/12/26 17:19:56.0526512 4456  7540  DownloadManager Received power state change notification: Old: <unknown>; New: DC(Battery Saver).
    2018/12/26 17:19:56.0526558 4456  7540  DownloadManager Power state changed from <unknown> to DC(Battery Saver).
    2018/12/26 17:19:56.0955788 4456  1884  Misc            Got 8B24B027-1DEE-BABB-9A95-3517DFB9C552 redir Client/Server URL: https://fe3.delivery.mp.microsoft.com/ClientWebService/client.asmx""
    2018/12/26 17:19:56.0975464 4456  1884  Misc            Token Requested with 0 category IDs.
    2018/12/26 17:19:56.1069089 4456  6204  Misc            Got 9482F4B4-E343-43B6-B170-9A65BC822C77 redir Client/Server URL: https://fe2.update.microsoft.com/v6/ClientWebService/client.asmx""
    2018/12/26 17:19:56.1313672 4456  1884  Misc            GetUserTickets: No user tickets found. Returning WU_E_NO_USERTOKEN.
    2018/12/26 17:19:56.1371280 4456  1884  Misc            Acquired new token from Server
    2018/12/26 17:19:56.1372974 4456  1884  Misc            Got service 8B24B027-1DEE-BABB-9A95-3517DFB9C552 plugin Client/Server auth token of type 0x00000001
    2018/12/26 17:19:56.1872814 4456  1884  Driver          Skipping printer driver 5 due to incomplete info or mismatched environment - HWID[microsoftmicrosoft_musd] Provider[Microsoft] MfgName[Microsoft] Name[Microsoft enhanced Point and Print compatibility driver] pEnvironment[Windows NT x86] LocalPrintServerEnv[Windows x64]
    2018/12/26 17:19:56.3278875 4456  1884  ProtocolTalker  ServiceId = {8B24B027-1DEE-BABB-9A95-3517DFB9C552}, Server URL = https://fe3.delivery.mp.microsoft.com/ClientWebService/client.asmx
    2018/12/26 17:19:56.3293373 4456  1884  ProtocolTalker  OK to reuse existing configuration
    2018/12/26 17:19:56.3293430 4456  1884  ProtocolTalker  Existing cookie is valid, just use it
    2018/12/26 17:19:56.3430768 4456  6204  ProtocolTalker  ServiceId = {9482F4B4-E343-43B6-B170-9A65BC822C77}, Server URL = https://fe2.update.microsoft.com/v6/ClientWebService/client.asmx
    2018/12/26 17:19:56.3430899 4456  6204  ProtocolTalker  OK to reuse existing configuration
    2018/12/26 17:19:56.3430944 4456  6204  ProtocolTalker  Existing cookie is valid, just use it
    2018/12/26 17:19:56.5356270 4456  1884  IdleTimer       WU operation (CAgentProtocolTalker::SyncUpdates_WithRecover) started; operation # 10; does use network; is at background priority
    2018/12/26 17:19:56.5356492 4456  1884  WebServices     Auto proxy settings for this web service call.
    2018/12/26 17:19:57.7041100 4456  1884  IdleTimer       WU operation (CAgentProtocolTalker::SyncUpdates_WithRecover, operation # 10) stopped; does use network; is at background priority
    2018/12/26 17:19:57.7137588 4456  1884  IdleTimer       WU operation (CAgentProtocolTalker::SyncUpdates_WithRecover) started; operation # 11; does use network; is at background priority
    2018/12/26 17:19:58.3131199 4456  6204  IdleTimer       WU operation (CAgentProtocolTalker::SyncUpdates_WithRecover) started; operation # 12; does use network; is at background priority
    2018/12/26 17:19:58.3131363 4456  6204  WebServices     Auto proxy settings for this web service call.
    2018/12/26 17:19:58.4858514 4456  1884  IdleTimer       WU operation (CAgentProtocolTalker::SyncUpdates_WithRecover, operation # 11) stopped; does use network; is at background priority
    2018/12/26 17:19:58.4861078 4456  1884  ProtocolTalker  SyncUpdates round trips: 2
    2018/12/26 17:19:58.5365300 4456  1884  Agent           Found 0 updates and 7 categories in search; evaluated appl. rules of 64 out of 73 deployed entities
    2018/12/26 17:19:58.5488270 4456  1884  Agent           * END * Finding updates CallerId = Device Driver Retrieval Client  Id = 3
    2018/12/26 17:19:58.5518921 4456  1884  IdleTimer       WU operation (CSearchCall::Init ID 3, operation # 9) stopped; does use network; is not at background priority
    2018/12/26 17:19:58.5624061 1276  7640  ComApi          *RESUMED*   Search ClientId = Device Driver Retrieval Client, ServiceId = 8B24B027-1DEE-BABB-9A95-3517DFB9C552 (cV = AdZPdjBP7024GUXs.1.0.0)
    2018/12/26 17:19:58.5661505 1276  7640  ComApi          * END *   Search ClientId = Device Driver Retrieval Client, Updates found = 0, ServiceId = 8B24B027-1DEE-BABB-9A95-3517DFB9C552 (cV = AdZPdjBP7024GUXs.1.0.0)
    2018/12/26 17:19:59.2807998 4456  6204  IdleTimer       WU operation (CAgentProtocolTalker::SyncUpdates_WithRecover, operation # 12) stopped; does use network; is at background priority
    2018/12/26 17:19:59.2815576 4456  6204  IdleTimer       WU operation (CAgentProtocolTalker::GetExternalCabFileLocations) started; operation # 13; does use network; is at background priority
    2018/12/26 17:19:59.4638740 4456  6204  IdleTimer       WU operation (CAgentProtocolTalker::GetExternalCabFileLocations, operation # 13) stopped; does use network; is at background priority
    2018/12/26 17:19:59.5927860 4456  6204  Metadata        Enforcement Mode: Unknown => Audit
    2018/12/26 17:19:59.5927975 4456  6204  Metadata        TimestampToken Validity: 0 => 90 (days)
    2018/12/26 17:19:59.5928020 4456  6204  Metadata        Using mode: Audit, validity: 90
    2018/12/26 17:19:59.5998051 4456  6204  ProtocolTalker  SyncUpdates - 0 bad out of 2 metadata signatures checked using Audit enforcement mode.
    2018/12/26 17:19:59.7180714 4456  6204  ProtocolTalker  SyncUpdates round trips: 1
    2018/12/26 17:20:00.6534072 4456  6204  ProtocolTalker  ServiceId = {9482F4B4-E343-43B6-B170-9A65BC822C77}, Server URL = https://fe2.update.microsoft.com/v6/ClientWebService/client.asmx
    2018/12/26 17:20:00.6534109 4456  6204  ProtocolTalker  OK to reuse existing configuration
    2018/12/26 17:20:00.6534162 4456  6204  ProtocolTalker  Existing cookie is valid, just use it
    2018/12/26 17:20:00.6534343 4456  6204  IdleTimer       WU operation (CAgentProtocolTalker::GetExtendedUpdateInfo_WithRecovery) started; operation # 14; does use network; is at background priority
    2018/12/26 17:20:00.8428698 4456  6204  IdleTimer       WU operation (CAgentProtocolTalker::GetExtendedUpdateInfo_WithRecovery, operation # 14) stopped; does use network; is at background priority
    2018/12/26 17:20:00.8823722 4456  6204  Metadata        Enforcement Mode: Unknown => Audit
    2018/12/26 17:20:00.8823788 4456  6204  Metadata        TimestampToken Validity: 0 => 90 (days)
    2018/12/26 17:20:00.8823829 4456  6204  Metadata        Using mode: Audit, validity: 90
    2018/12/26 17:20:00.8837441 4456  6204  ProtocolTalker  SyncExtendedUpdateInfo - 0 bad out of 6 metadata signatures checked using Audit enforcement mode.
    2018/12/26 17:20:00.9712284 4456  6204  DownloadManager Download Manager got out of scope notification for the service 9482F4B4-E343-43B6-B170-9A65BC822C77.
    2018/12/26 17:20:01.0290521 4456  6204  Agent           Found 0 updates and 28 categories in search; evaluated appl. rules of 1087 out of 1370 deployed entities
    2018/12/26 17:20:01.0542348 4456  6204  Agent           * END * Finding updates CallerId = Device Driver Retrieval Client  Id = 2
    2018/12/26 17:20:01.0561774 4456  6204  IdleTimer       WU operation (CSearchCall::Init ID 2, operation # 6) stopped; does use network; is not at background priority
    2018/12/26 17:20:01.0617606 1276  7640  ComApi          *RESUMED*   Search ClientId = Device Driver Retrieval Client, ServiceId = 9482F4B4-E343-43B6-B170-9A65BC822C77 (cV = AdZPdjBP7024GUXs.1.0.0)
    2018/12/26 17:20:01.0622369 1276  7640  ComApi          * END *   Search ClientId = Device Driver Retrieval Client, Updates found = 0, ServiceId = 9482F4B4-E343-43B6-B170-9A65BC822C77 (cV = AdZPdjBP7024GUXs.1.0.0)
    2018/12/26 17:20:01.0625388 1276  1696  ComApi          * END *   All federated searches have completed. Jobs = 2, Succeeded = 2, ClientId = Device Driver Retrieval Client (cV = AdZPdjBP7024GUXs.1.0)
    2018/12/26 17:20:02.4590227 4456  9472  Shared          UpdateNetworkState Ipv4, cNetworkInterfaces = 0.
    2018/12/26 17:20:02.4642157 4456  9472  Shared          UpdateNetworkState Ipv6, cNetworkInterfaces = 0.
    2018/12/26 17:20:11.6780021 4456  9472  Shared          UpdateNetworkState Ipv6, cNetworkInterfaces = 1.
    2018/12/26 17:20:13.6756049 4456  9472  Shared          UpdateNetworkState Ipv4, cNetworkInterfaces = 1.
    2018/12/26 17:20:22.4983807 4456  9472  Shared          Power status changed
    2018/12/26 17:20:22.6053173 4456  7540  DownloadManager Received power state change notification: Old: DC(Battery Saver); New: AC.
    2018/12/26 17:20:22.6053206 4456  7540  DownloadManager Power state changed from DC(Battery Saver) to AC.
    2018/12/26 17:20:22.7015610 1224  4752  ComApi          * START *   Federated Search ClientId = TrustedInstaller FOD Enumerate (cV: gJAIPznZ80iuzbXZ.1.1.0)
    2018/12/26 17:20:22.7024927 4456  8784  IdleTimer       WU operation (SR.TrustedInstaller FOD Enumerate ID 4) started; operation # 26; does use network; is not at background priority
    2018/12/26 17:20:22.7031672 4456  2820  IdleTimer       WU operation (SR.TrustedInstaller FOD Enumerate ID 4, operation # 26) stopped; does use network; is not at background priority
    2018/12/26 17:20:22.7079492 1224  8316  ComApi          Federated Search: Starting search against 1 service(s) (cV = gJAIPznZ80iuzbXZ.1.1.0)
    2018/12/26 17:20:22.7080735 1224  8316  ComApi          * START *   Search ClientId = TrustedInstaller FOD Enumerate, ServiceId = 3DA21691-E39D-4DA6-8A4B-B43877BCB1B7 (cV = gJAIPznZ80iuzbXZ.1.1.0.0)
    2018/12/26 17:20:22.7092365 4456  8784  IdleTimer       WU operation (CSearchCall::Init ID 5) started; operation # 29; does use network; is not at background priority
    2018/12/26 17:20:22.7205473 4456  8784  Agent           * START * Queueing Finding updates [CallerId = TrustedInstaller FOD Enumerate  Id = 5]
    2018/12/26 17:20:22.7205596 4456  8784  Agent           Service 3DA21691-E39D-4DA6-8A4B-B43877BCB1B7 is not in sequential scan list
    2018/12/26 17:20:22.7205662 4456  8784  Agent           Added service 3DA21691-E39D-4DA6-8A4B-B43877BCB1B7 to sequential scan list
    2018/12/26 17:20:22.7206585 4456  6660  Agent           Service 3DA21691-E39D-4DA6-8A4B-B43877BCB1B7 is in sequential scan list
    2018/12/26 17:20:22.7238593 4456  8396  Agent           * END * Queueing Finding updates [CallerId = TrustedInstaller FOD Enumerate  Id = 5]
    2018/12/26 17:20:22.7270724 4456  8396  Agent           * START * Finding updates CallerId = TrustedInstaller FOD Enumerate  Id = 5
    2018/12/26 17:20:22.7271446 4456  8396  Agent           Online = Yes; Interactive = Yes; AllowCachedResults = No; Ignore download priority = No
    2018/12/26 17:20:22.7271500 4456  8396  Agent           Criteria = (Product='Client.OS.rs2.amd64' and CurrentVersionOnly=1)""
    2018/12/26 17:20:22.7271553 4456  8396  Agent           ServiceID = {3DA21691-E39D-4DA6-8A4B-B43877BCB1B7} Managed
    2018/12/26 17:20:22.7271565 4456  8396  Agent           Search Scope = {Machine}
    2018/12/26 17:20:22.7271611 4456  8396  Agent           Caller SID for Applicability: S-1-5-18
    2018/12/26 17:20:22.7532997 4456  8396  Misc            Got WSUS Client/Server URL: http://wsus-server.server.com:8530/ClientWebService/client.asmx""
    2018/12/26 17:20:22.7750725 4456  8396  Driver          Skipping printer driver 5 due to incomplete info or mismatched environment - HWID[microsoftmicrosoft_musd] Provider[Microsoft] MfgName[Microsoft] Name[Microsoft enhanced Point and Print compatibility driver] pEnvironment[Windows NT x86] LocalPrintServerEnv[Windows x64]
    2018/12/26 17:20:22.8861634 4456  8396  ProtocolTalker  ServiceId = {3DA21691-E39D-4DA6-8A4B-B43877BCB1B7}, Server URL = http://wsus-server.server.com:8530/ClientWebService/client.asmx
    2018/12/26 17:20:22.8861716 4456  8396  ProtocolTalker  OK to reuse existing configuration
    2018/12/26 17:20:22.8864969 4456  8396  ProtocolTalker  Cached cookie has expired or new PID is available
    2018/12/26 17:20:22.8865133 4456  8396  Misc            Got WSUS SimpleTargeting URL: http://wsus-server.server.com:8530""
    2018/12/26 17:20:22.8865913 4456  8396  IdleTimer       WU operation (CAuthorizationCookieWrapper::InitializeSimpleTargetingCookie) started; operation # 30; does use network; is at background priority
    2018/12/26 17:20:22.8865966 4456  8396  ProtocolTalker  Initializing simple targeting cookie, clientId = 24eab6d4-5dc0-4d64-ab62-74e9c61b587e, target group = , DNS name = hlsh-5000000845.server.com
    2018/12/26 17:20:22.8865978 4456  8396  ProtocolTalker    Server URL = http://wsus-server.server.com:8530/SimpleAuthWebService/SimpleAuth.asmx
    2018/12/26 17:20:22.8869228 4456  8396  WebServices     Auto proxy settings for this web service call.
    2018/12/26 17:20:22.8964633 4456  8396  IdleTimer       WU operation (CAuthorizationCookieWrapper::InitializeSimpleTargetingCookie, operation # 30) stopped; does use network; is at background priority
    2018/12/26 17:20:22.8966143 4456  8396  IdleTimer       WU operation (CAgentProtocolTalker::GetCookie_WithRecovery) started; operation # 31; does use network; is at background priority
    2018/12/26 17:20:22.8966352 4456  8396  WebServices     Auto proxy settings for this web service call.
    2018/12/26 17:20:22.9018237 4456  8396  IdleTimer       WU operation (CAgentProtocolTalker::GetCookie_WithRecovery, operation # 31) stopped; does use network; is at background priority
    2018/12/26 17:20:22.9022151 4456  8396  ProtocolTalker  PTInfo: Server requested registration
    2018/12/26 17:20:24.4870289 4456  8396  IdleTimer       WU operation (CAgentProtocolTalker::SyncUpdates_WithRecover) started; operation # 32; does use network; is at background priority
    2018/12/26 17:20:24.4925727 4456  8396  IdleTimer       WU operation (CAgentProtocolTalker::SyncUpdates_WithRecover, operation # 32) stopped; does use network; is at background priority
    2018/12/26 17:20:24.4925952 4456  8396  ProtocolTalker  SyncUpdates - 0 bad out of 0 metadata signatures checked using Unknown enforcement mode.
    2018/12/26 17:20:24.5251462 4456  8396  IdleTimer       WU operation (CAgentProtocolTalker::SyncUpdates_WithRecover) started; operation # 33; does use network; is at background priority
    2018/12/26 17:20:24.5304824 4456  8396  IdleTimer       WU operation (CAgentProtocolTalker::SyncUpdates_WithRecover, operation # 33) stopped; does use network; is at background priority
    2018/12/26 17:20:24.5304931 4456  8396  ProtocolTalker  SyncUpdates round trips: 2
    2018/12/26 17:20:25.8928436 4456  7540  DownloadManager Received power state change notification: Old: AC; New: AC.
    2018/12/26 17:20:31.3194497 4456  8396  ProtocolTalker  ServiceId = {3DA21691-E39D-4DA6-8A4B-B43877BCB1B7}, Server URL = http://wsus-server.server.com:8530/ClientWebService/client.asmx
    2018/12/26 17:20:31.3194522 4456  8396  ProtocolTalker  OK to reuse existing configuration
    2018/12/26 17:20:31.3194575 4456  8396  ProtocolTalker  Existing cookie is valid, just use it
    2018/12/26 17:20:31.3194600 4456  8396  ProtocolTalker  PTInfo: Server requested registration
    2018/12/26 17:20:31.3305394 4456  8396  IdleTimer       WU operation (CAgentProtocolTalker::GetExtendedUpdateInfo_WithRecovery) started; operation # 34; does use network; is at background priority
    2018/12/26 17:20:31.3327502 4456  8396  IdleTimer       WU operation (CAgentProtocolTalker::GetExtendedUpdateInfo_WithRecovery, operation # 34) stopped; does use network; is at background priority
    2018/12/26 17:20:31.3542054 4456  8396  SLS             *FAILED* [80248007] Method failed [SlsDatastoreLookup:797]
    2018/12/26 17:20:31.3542091 4456  8396  SLS             Retrieving SLS response from server...
    2018/12/26 17:20:31.3548754 4456  8396  SLS             Making request with URL HTTPS://sls.update.microsoft.com/SLS/{3DA21691-E39D-4DA6-8A4B-B43877BCB1B7}/x64/10.0.16299.0/0?CH=46&L=zh-CN&P=&PT=0x30&WUA=10.0.16299.98&MK=Dell+Inc.&MD=Latitude+E7270
    2018/12/26 17:20:32.1222398 4456  8396  SLS             SLS Response is Error response type.  Attempting to extract the HRESULT in the payload...
    2018/12/26 17:20:32.1223850 4456  8396  SLS             Succeeded in extracting the HRESULT from the payload => 0x80240042
    2018/12/26 17:20:32.1229819 4456  8396  Metadata        *FAILED* [80245004] Method failed [MetadataIntegrity::SignatureVerifier::GetFragmentSigningConfig:793]
    2018/12/26 17:20:32.1229852 4456  8396  Metadata        *FAILED* [80245004] GetFragmentSigningConfig (Using default enforcement mode: Audit)
    2018/12/26 17:20:32.1229885 4456  8396  Metadata        *FAILED* [80245004] Method failed [MetadataIntegrity::SignatureVerifier::GetFragmentSigningConfigAndUpdateEnforcementPolicy:745]
    2018/12/26 17:20:32.1229897 4456  8396  Metadata        Policy-driven service enabled. Using Ignore Policy.
    2018/12/26 17:20:32.1230004 4456  8396  ProtocolTalker  SyncExtendedUpdateInfo - 0 bad out of 0 metadata signatures checked using Audit enforcement mode.
    2018/12/26 17:20:32.1492630 4456  8396  Agent           Found 0 updates and 93 categories in search; evaluated appl. rules of 653 out of 971 deployed entities
    2018/12/26 17:20:32.1580051 4456  8396  Agent           * END * Finding updates CallerId = TrustedInstaller FOD Enumerate  Id = 5
    2018/12/26 17:20:32.1595329 4456  8396  IdleTimer       WU operation (CSearchCall::Init ID 5, operation # 29) stopped; does use network; is not at background priority
    2018/12/26 17:20:32.1640704 1224  9772  ComApi          *RESUMED*   Search ClientId = TrustedInstaller FOD Enumerate, ServiceId = 3DA21691-E39D-4DA6-8A4B-B43877BCB1B7 (cV = gJAIPznZ80iuzbXZ.1.1.0.0)
    2018/12/26 17:20:32.1665684 1224  9772  ComApi          * END *   Search ClientId = TrustedInstaller FOD Enumerate, Updates found = 0, ServiceId = 3DA21691-E39D-4DA6-8A4B-B43877BCB1B7 (cV = gJAIPznZ80iuzbXZ.1.1.0.0)
    2018/12/26 17:20:32.1667440 1224  8316  ComApi          * END *   All federated searches have completed. Jobs = 1, Succeeded = 1, ClientId = TrustedInstaller FOD Enumerate (cV = gJAIPznZ80iuzbXZ.1.1.0)
    2018/12/26 17:20:37.1259050 4456  9472  Misc            CSusClientGlobal::DoServicePreShutdown
    2018/12/26 17:20:37.1259071 4456  9472  IdleTimer       Idle timer disabled in preparation for service shutdown
    2018/12/26 17:20:37.1259132 4456  9472  Misc            WUTaskManager uninit
    2018/12/26 17:20:37.1259173 4456  9472  Agent           Earliest future timer found: 
    2018/12/26 17:20:37.1259276 4456  9472  Agent               Timer: 855E8A7C-ECB4-4CA3-B045-1DFA50104289, Expires 2018-12-26 09:28:18, not idle-only, network-only
    2018/12/26 17:20:37.1275899 4456  9472  Misc            CreateSessionStateChangeTrigger, TYPE:2, Enable:No
    2018/12/26 17:20:37.1275936 4456  9472  Misc            CreateSessionStateChangeTrigger, TYPE:4, Enable:No
    2018/12/26 17:20:37.1297405 4456  9472  Misc            Agent uninit
    2018/12/26 17:20:37.1310751 4456  9472  Misc            Reporter uninit
    2018/12/26 17:20:37.1388781 4456  9472  Misc            network cost manager uninit
    2018/12/26 17:20:37.1388970 4456  9472  Misc            Eventer uninit
    2018/12/26 17:20:37.1389725 4456  9472  Misc            ServiceManager uninit
    2018/12/26 17:20:37.1390328 4456  9472  Misc            PersistentTimeoutScheduler uninit
    2018/12/26 17:20:37.1390345 4456  9472  Misc            datastore uninit
    2018/12/26 17:20:37.2082759 4456  9472  Misc            setting cache uninit
    2018/12/26 17:20:37.2082784 4456  9472  Misc            security checker uninit
    2018/12/26 17:20:37.2082829 4456  9472  Misc            Test Hook uninit
    2018/12/26 17:20:37.2082841 4456  9472  Misc            IdleTimer uninit
    2018/12/26 17:20:37.2091448 4456  9472  Shared          * END * Service exit Exit code = 0x240001
    2018/12/26 17:21:42.5904681 4456  5360  IdleTimer       Non-AoAc machine.  Aoac operations will be ignored.
    2018/12/26 17:21:42.5905296 4456  5360  Agent           WU client version 10.0.16299.98
    2018/12/26 17:21:42.5907471 4456  5360  Agent           SleepStudyTracker: Machine is non-AOAC. Sleep study tracker disabled.
    2018/12/26 17:21:42.5909308 4456  5360  Agent           Base directory: C:\WINDOWS\SoftwareDistribution
    2018/12/26 17:21:42.5914494 4456  5360  Agent           Datastore directory: C:\WINDOWS\SoftwareDistribution\DataStore\DataStore.edb
    2018/12/26 17:21:42.5922810 4456  5360  DataStore       JetEnableMultiInstance succeeded - applicable param count: 5, applied param count: 5
    2018/12/26 17:21:42.6127766 4456  5360  Shared          UpdateNetworkState Ipv6, cNetworkInterfaces = 1.
    2018/12/26 17:21:42.6127942 4456  5360  Shared          UpdateNetworkState Ipv4, cNetworkInterfaces = 1.
    2018/12/26 17:21:42.6131339 4456  5360  Shared          Network state: Connected
    2018/12/26 17:21:42.6571381 4456  5360  Agent           Created new random SusClientId de3c2baf-3707-4530-80db-dc8da16b9df2. Old Id: none.
    2018/12/26 17:21:42.6604066 4456  5360  Misc            *FAILED* [8024000C] LoadHistoryEventFromRegistry completed
    2018/12/26 17:21:42.6605325 4456  5360  Shared          UpdateNetworkState Ipv6, cNetworkInterfaces = 1.
    2018/12/26 17:21:42.6605387 4456  5360  Shared          UpdateNetworkState Ipv4, cNetworkInterfaces = 1.
    2018/12/26 17:21:42.6605452 4456  5360  Shared          Power status changed
    2018/12/26 17:21:42.6612201 4456  5360  Agent           Initializing global settings cache
    2018/12/26 17:21:42.6612217 4456  5360  Agent           WSUS server: http://wsus-server.server.com:8530


    2018年12月26日 9:29
  • 没错是network services
    2018年12月26日 9:35